West Baraboo, Wisconsin
Current Conditions -  °F | °C
As of 8:55 AM on Wednesday 22 Oct 2014 (Local Time) from KDLL Reporting Station
Clear Clear  
Wind Chill: 29°   Ceiling: Unl
Heat Index: 33°   Visibility: 10mi
Dew Point: 32°   Wind: 5mph
Humidity: 96%   Direction: 90°E
Pressure: 30.34"   Gusts: NA
Location:  43.4869°N, 89.7322°W
Report Text: KDLL 221355Z AUTO 09004KT 10SM CLR 01/00 A3034 RMK AO2 T00060001
Loading
Personal Weather Stations






























Interactive Weather Map
Tropical Storm Tracking
New forecast layout! Learn more

10-Day Weather Forecast

Advertisements
Track Severe Weather on mobile